createdAt,value
2022-11-04T00:05:36.036Z,97423.97
2022-11-04T00:16:00.743Z,97398.62
2022-11-04T00:26:25.381Z,97384.81
2022-11-04T00:36:31.665Z,97374.62
2022-11-04T00:46:37.939Z,97369.06
2022-11-04T00:56:44.703Z,97335.84
2022-11-04T01:06:51.003Z,97324.13
2022-11-04T01:16:57.307Z,97296.31
2022-11-04T01:27:03.573Z,97292.38
2022-11-04T01:37:09.836Z,97276.62
2022-11-04T01:47:18.929Z,97254.75
2022-11-04T01:57:34.677Z,97236.44
2022-11-04T02:07:40.959Z,97224.25
2022-11-04T02:18:05.820Z,97192.56
2022-11-04T02:28:28.932Z,97180.22
2022-11-04T02:38:56.761Z,97174.19
2022-11-04T02:49:16.155Z,97146.72
2022-11-04T02:59:34.259Z,97153.72
2022-11-04T03:09:43.344Z,97145.13
2022-11-04T03:19:58.225Z,97136.84
2022-11-04T03:30:07.350Z,97147.34
2022-11-04T03:40:14.067Z,97140.72
2022-11-04T03:50:30.552Z,97108.53
2022-11-04T04:00:40.960Z,97080.72
2022-11-04T04:11:00.903Z,97063.19
2022-11-04T04:21:10.295Z,97065.81
2022-11-04T04:31:40.361Z,97043.03
2022-11-04T04:42:07.712Z,97032.59
2022-11-04T04:52:13.013Z,97017.78
2022-11-04T05:02:19.368Z,97002.91
2022-11-04T05:12:26.250Z,97012.66
2022-11-04T05:22:32.569Z,97018.78
2022-11-04T05:32:38.867Z,97010.72
2022-11-04T05:42:45.164Z,97004.06
2022-11-04T05:52:51.444Z,96962.97
2022-11-04T06:02:58.652Z,96966.38
2022-11-04T06:13:05.045Z,96976.25
2022-11-04T06:23:11.308Z,96992.63
2022-11-04T06:33:17.607Z,97003.09
2022-11-04T06:43:23.864Z,97022.47
2022-11-04T06:53:31.075Z,97041.84
2022-11-04T07:03:37.347Z,97036.19
2022-11-04T07:13:43.612Z,97046.41
2022-11-04T07:23:49.896Z,97050.44
2022-11-04T07:33:56.168Z,97046.38
2022-11-04T07:44:06.479Z,97042.84
2022-11-04T07:54:12.785Z,97039.81
2022-11-04T08:04:19.098Z,97061.22
2022-11-04T08:14:25.470Z,97060.75
2022-11-04T08:24:31.806Z,97054.16
2022-11-04T08:34:38.417Z,97048.09
2022-11-04T08:44:44.771Z,97044.03
2022-11-04T08:54:56.192Z,97013.31
2022-11-04T09:05:03.588Z,97009.47
2022-11-04T09:15:10.278Z,97001.09
2022-11-04T09:25:16.535Z,97013.44
2022-11-04T09:35:22.856Z,97003.03
2022-11-04T09:45:31.265Z,96992.81
2022-11-04T09:56:02.891Z,96985.44
2022-11-04T10:06:57.485Z,96999.41
2022-11-04T10:17:07.660Z,97010.97
2022-11-04T10:27:18.783Z,97023.22
2022-11-04T10:37:26.802Z,97043.06
2022-11-04T10:47:44.444Z,97075.22
2022-11-04T10:57:50.737Z,97057.03
2022-11-04T11:07:59.150Z,97058.19
2022-11-04T11:18:18.303Z,97046.88
2022-11-04T11:28:26.130Z,97043.00
2022-11-04T11:38:34.477Z,97019.00
2022-11-04T11:48:44.088Z,96999.97
2022-11-04T12:09:34.012Z,96993.56
2022-11-04T12:20:13.306Z,96985.06
2022-11-04T12:30:30.034Z,96975.97
2022-11-04T12:40:47.699Z,96969.50
2022-11-04T12:51:39.971Z,96979.22
2022-11-04T13:02:11.768Z,96968.19
2022-11-04T13:12:27.275Z,96976.66
2022-11-04T13:22:35.910Z,96972.50
2022-11-04T13:32:58.426Z,96968.94
2022-11-04T13:43:40.428Z,96947.28
2022-11-04T13:53:53.078Z,96941.97
2022-11-04T14:04:16.623Z,96927.41
2022-11-04T14:14:21.891Z,96946.31
2022-11-04T14:24:29.327Z,96919.44
2022-11-04T14:34:38.881Z,96897.97
2022-11-04T14:44:49.840Z,96917.75
2022-11-04T14:54:59.811Z,96941.28
2022-11-04T15:05:06.324Z,96938.25
2022-11-04T15:15:36.020Z,96941.38
2022-11-04T15:25:47.451Z,96908.00
2022-11-04T15:35:54.025Z,96909.78
2022-11-04T15:46:00.421Z,96925.06
2022-11-04T15:56:08.219Z,96901.34
2022-11-04T16:06:14.876Z,96877.34
2022-11-04T16:16:26.684Z,96875.13
2022-11-04T16:26:39.182Z,96882.63
2022-11-04T16:36:45.419Z,96872.25
2022-11-04T16:46:51.694Z,96863.97
2022-11-04T16:56:58.305Z,96858.03
2022-11-04T17:07:04.740Z,96851.94
2022-11-04T17:17:11.433Z,96848.81
2022-11-04T17:27:18.091Z,96840.53
2022-11-04T17:37:24.366Z,96824.50
2022-11-04T17:47:30.680Z,96808.66
2022-11-04T17:57:36.994Z,96775.81
2022-11-04T18:07:43.416Z,96758.22
2022-11-04T18:17:51.425Z,96743.84
2022-11-04T18:27:57.728Z,96747.72
2022-11-04T18:38:03.995Z,96722.28
2022-11-04T18:48:10.559Z,96717.09
2022-11-04T18:58:17.009Z,96698.41
2022-11-04T19:08:23.377Z,96684.03
2022-11-04T19:18:30.002Z,96628.47
2022-11-04T19:28:47.729Z,96585.31
2022-11-04T19:38:55.649Z,96598.97
2022-11-04T19:49:02.313Z,96579.91
2022-11-04T19:59:10.281Z,96555.47
2022-11-04T20:09:16.875Z,96569.16
2022-11-04T20:19:23.525Z,96636.62
2022-11-04T20:29:29.989Z,96764.25
2022-11-04T20:39:36.335Z,96826.03
2022-11-04T20:49:42.929Z,96816.16
2022-11-04T20:59:49.195Z,96825.34
2022-11-04T21:09:55.664Z,96887.19
2022-11-04T21:20:01.966Z,96903.03
2022-11-04T21:30:08.597Z,96939.03
2022-11-04T21:40:15.084Z,96946.19
2022-11-04T21:50:21.408Z,96924.38
2022-11-04T22:00:27.702Z,96868.59
2022-11-04T22:10:33.983Z,96844.66
2022-11-04T22:20:40.297Z,96838.87
2022-11-04T22:30:46.610Z,96838.09
2022-11-04T22:40:59.866Z,96829.69
2022-11-04T22:51:06.776Z,96847.84
2022-11-04T23:01:16.006Z,96839.09
2022-11-04T23:11:43.918Z,96818.62
2022-11-04T23:22:08.670Z,96838.69
2022-11-04T23:32:14.919Z,96824.84
2022-11-04T23:42:22.386Z,96826.78
2022-11-04T23:52:47.207Z,96847.69
